Terminal Aerodrome Forecast
Issued by NWS

Home | Current Version | Previous Version | Text Only | Print | Product List | Glossary On
Versions: 1 2 3 4 5 6 7 8 9 10 11 12 13
000
FTUS45 KTFX 292300
TAFCTB
TAF
KCTB 292327Z 3000/3024 24025G32KT P6SM SCT120 BKN250
     FM300300 24020KT P6SM SCT120 BKN250
     FM301000 26012KT P6SM SKC
     FM301800 25016KT P6SM SCT100
     FM302100 25020G28KT P6SM SKC=

USA.gov is the U.S. government's official web portal to all federal, state and local government web resources and services.